Boyero, Colorado
Current Conditions -  °F | °C
As of 8:55 PM on Tuesday 25 Nov 2014 (Local Time) from KLIC Reporting Station
Broken Clouds Broken Clouds  
Wind Chill: 24°   Ceiling: 10000
Heat Index: 35°   Visibility: 10mi
Dew Point: 21°   Wind: 20mph
Humidity: 57%   Direction: 20°NNE
Pressure: 29.99"   Gusts: NA
Location:  38.9913°N, 103.506°W
Report Text: KLIC 260355Z AUTO 02017KT 10SM BKN100 02/M06 A2999 RMK AO2 SLP161 T00171061
Loading
Personal Weather Stations






























Interactive Weather Map New forecast layout! Learn more

10-Day Weather Forecast

Advertisements
Track Severe Weather on mobile